Aylesford, Canada
Current Conditions -  °F | °C
As of 10:00 AM on Thursday 23 Oct 2014 (Local Time) from CYZX Reporting Station
Light Rain Light Rain  
Wind Chill: 52°   Ceiling: 1400
Heat Index: 52°   Visibility: 6mi
Dew Point: 50°   Wind: 18mph
Humidity: 94%   Direction: 60°ENE
Pressure: 30.02"   Gusts: 28mph
Location:  45.03°N, 64.84°W
Report Text: CYZX 231300Z 06016G24KT 6SM -RA BR FEW009 BKN014 OVC023 11/10 A3002 RMK SF2SF3SC2 WNDY HILL 10022G32KT SLP168
Loading
Personal Weather Stations






























Interactive Weather Map
Tropical Storm Tracking
New forecast layout! Learn more

10-Day Weather Forecast

Advertisements
Track Severe Weather on mobile